Time;durP1;ratioP1;P1;durP2;ratioP2;P2;SDS_P1;SDS_P2;PMS_P1;PMS_P2;Temp;Humidity;BMP_temperature;BMP_pressure;BME280_temperature;BME280_humidity;BME280_pressure;Samples;Min_cycle;Max_cycle;Signal;HPM_P1;HPM_P2
2022/06/22 00:02:04;;;;;;;5.20;4.70;;;16.00;1.00;;;15.83;63.78;100774.16;5010475;28;20476;-73
2022/06/22 00:04:44;;;;;;;4.63;3.87;;;15.90;1.00;;;15.79;64.54;100772.13;5015198;28;20441;-74
2022/06/22 00:07:21;;;;;;;4.83;3.87;;;15.80;1.00;;;15.67;64.05;100769.44;5024375;28;20467;-74
2022/06/22 00:09:56;;;;;;;5.30;4.03;;;15.80;1.00;;;15.61;63.93;100764.94;5010499;28;20407;-73
2022/06/22 00:12:32;;;;;;;5.10;4.43;;;15.70;1.00;;;15.58;63.96;100771.72;5015584;28;21106;-73
2022/06/22 00:15:18;;;;;;;6.73;3.60;;;15.60;1.00;;;15.54;63.21;100772.44;5009700;28;20888;-74
2022/06/22 00:17:47;;;;;;;9.70;4.63;;;15.60;1.00;;;15.51;62.49;100770.97;5011469;28;20399;-74
2022/06/22 00:20:26;;;;;;;5.77;4.20;;;15.60;1.00;;;15.58;61.82;100770.88;5029565;28;20434;-74
2022/06/22 00:23:00;;;;;;;4.97;3.57;;;15.60;1.00;;;15.68;61.18;100773.00;5018683;28;20449;-73
2022/06/22 00:25:37;;;;;;;8.60;5.80;;;15.60;1.00;;;15.74;60.78;100775.59;5009103;28;20419;-73
2022/06/22 00:28:29;;;;;;;3.37;2.90;;;15.70;1.00;;;15.75;60.15;100774.53;5009957;28;20413;-73
2022/06/22 00:31:15;;;;;;;6.93;4.27;;;15.80;1.00;;;15.75;60.90;100771.78;4999917;28;20459;-74
2022/06/22 00:34:04;;;;;;;6.97;4.43;;;15.70;1.00;;;15.80;61.17;100780.09;4995844;28;20433;-73
2022/06/22 00:36:41;;;;;;;4.40;3.23;;;15.80;1.00;;;15.81;61.11;100776.31;5021646;28;20991;-74
2022/06/22 00:39:23;;;;;;;3.67;3.30;;;15.80;1.00;;;15.79;60.74;100770.25;5010469;28;20458;-74
2022/06/22 00:41:59;;;;;;;4.33;3.93;;;15.80;1.00;;;15.72;60.64;100772.28;5010478;28;20471;-74
2022/06/22 00:44:33;;;;;;;6.30;3.90;;;15.70;1.00;;;15.67;61.48;100768.63;5009651;28;20436;-74
2022/06/22 00:47:09;;;;;;;6.53;3.80;;;15.70;1.00;;;15.58;61.67;100768.16;4995192;28;20457;-74
2022/06/22 00:49:45;;;;;;;4.30;3.50;;;15.70;1.00;;;15.52;61.72;100772.66;5017214;28;20408;-74
2022/06/22 00:52:28;;;;;;;4.93;3.70;;;15.60;1.00;;;15.47;61.71;100768.94;5011750;28;20471;-75
2022/06/22 00:54:58;;;;;;;6.90;3.47;;;15.60;1.00;;;15.53;59.62;100762.56;5013915;28;20447;-76
2022/06/22 00:57:36;;;;;;;3.50;2.30;;;15.60;1.00;;;15.72;58.36;100766.81;5012111;28;20892;-75
2022/06/22 01:00:17;;;;;;;4.20;2.97;;;15.70;1.00;;;15.76;57.39;100761.72;5017409;28;20443;-75
2022/06/22 01:02:54;;;;;;;3.53;2.00;;;15.70;1.00;;;15.71;57.39;100762.44;5008308;28;20460;-75
2022/06/22 01:05:36;;;;;;;4.23;2.17;;;15.70;1.00;;;15.70;56.61;100766.22;5013659;28;20443;-74
2022/06/22 01:08:18;;;;;;;4.57;2.00;;;15.70;1.00;;;15.72;55.74;100758.66;5010248;28;20861;-74
2022/06/22 01:10:55;;;;;;;5.23;2.30;;;15.70;1.00;;;15.69;55.58;100752.81;5018708;28;20449;-74
2022/06/22 01:13:32;;;;;;;4.20;2.40;;;15.70;1.00;;;15.64;55.87;100753.53;4990621;28;20452;-74
2022/06/22 01:16:08;;;;;;;2.40;1.73;;;15.70;1.00;;;15.64;55.66;100745.34;4988879;28;20441;-75
2022/06/22 01:18:47;;;;;;;5.00;2.43;;;15.70;1.00;;;15.64;55.51;100753.53;5010941;28;20958;-74
2022/06/22 01:21:23;;;;;;;3.43;2.43;;;15.70;1.00;;;15.62;55.99;100758.41;5010157;28;20551;-74
2022/06/22 01:24:19;;;;;;;5.63;1.63;;;15.70;1.00;;;15.76;55.37;100750.81;5011333;28;20531;-74
2022/06/22 01:27:24;;;;;;;2.20;1.93;;;15.70;1.00;;;15.85;54.68;100750.19;5011133;28;20761;-75
2022/06/22 01:29:56;;;;;;;2.23;2.00;;;15.80;1.00;;;15.69;55.22;100750.09;4991537;28;20463;-74
2022/06/22 01:32:30;;;;;;;2.13;1.87;;;15.80;1.00;;;15.62;55.78;100750.22;5011525;28;20496;-75
2022/06/22 01:35:05;;;;;;;3.27;1.70;;;15.70;1.00;;;15.56;55.99;100743.84;5007503;28;20437;-74
2022/06/22 01:37:34;;;;;;;3.20;1.67;;;15.60;1.00;;;15.55;56.23;100746.78;5009660;28;20518;-74
2022/06/22 01:40:14;;;;;;;4.77;1.97;;;15.60;1.00;;;15.47;56.85;100747.13;4991852;28;21074;-74
2022/06/22 01:42:54;;;;;;;2.33;1.83;;;15.60;1.00;;;15.54;56.66;100742.41;5011031;28;20427;-75
2022/06/22 01:45:33;;;;;;;2.43;1.40;;;15.50;1.00;;;15.68;56.29;100741.09;5009170;28;20449;-75
2022/06/22 01:48:11;;;;;;;4.70;2.03;;;15.50;1.00;;;15.73;56.12;100745.84;5010161;28;20917;-74
2022/06/22 01:50:49;;;;;;;4.00;2.47;;;15.60;1.00;;;15.73;56.01;100735.75;5013841;28;20796;-74
2022/06/22 01:53:26;;;;;;;2.20;1.80;;;15.70;1.00;;;15.55;56.37;100730.41;5015000;28;20483;-76
2022/06/22 01:56:04;;;;;;;4.97;2.30;;;15.60;1.00;;;15.46;56.46;100734.56;5014513;28;20444;-74
2022/06/22 01:58:53;;;;;;;4.07;2.30;;;15.50;1.00;;;15.38;56.87;100738.47;5013813;28;20445;-74
2022/06/22 02:01:33;;;;;;;3.63;1.73;;;15.50;1.00;;;15.27;57.47;100733.00;5011766;28;20537;-74
2022/06/22 02:04:30;;;;;;;2.37;1.70;;;15.40;1.00;;;15.12;57.90;100739.75;5015109;28;20432;-75
2022/06/22 02:10:23;;;;;;;2.80;2.33;;;15.20;1.00;;;15.05;59.04;100725.44;5010799;28;20419;-76
2022/06/22 02:13:07;;;;;;;2.20;1.80;;;15.10;1.00;;;15.07;59.94;100730.63;5008550;28;20472;-75
2022/06/22 02:16:04;;;;;;;3.40;2.07;;;15.10;1.00;;;15.17;59.78;100728.16;5011779;28;20491;-75
2022/06/22 02:18:43;;;;;;;2.37;2.17;;;15.10;1.00;;;15.08;60.10;100727.69;5003793;28;20449;-74
2022/06/22 02:21:21;;;;;;;2.93;2.07;;;15.10;1.00;;;15.00;60.32;100725.31;5011291;28;20472;-73
2022/06/22 02:24:08;;;;;;;2.43;2.10;;;15.00;1.00;;;14.91;60.64;100720.44;5009171;28;20633;-74
2022/06/22 02:26:46;;;;;;;2.90;2.10;;;15.00;1.00;;;14.82;60.61;100722.66;4987895;28;20448;-76
2022/06/22 02:29:18;;;;;;;3.37;1.70;;;14.90;1.00;;;14.83;61.17;100724.31;5015893;28;20426;-73
2022/06/22 02:31:51;;;;;;;3.63;2.67;;;14.90;1.00;;;14.83;61.25;100723.47;5015000;28;20960;-75
2022/06/22 02:34:21;;;;;;;2.30;1.73;;;14.90;1.00;;;14.78;61.35;100718.75;5017539;28;20444;-75
2022/06/22 02:36:54;;;;;;;3.67;2.37;;;14.80;1.00;;;14.72;61.44;100730.56;5028847;28;20497;-75
2022/06/22 02:39:26;;;;;;;2.97;2.40;;;14.80;1.00;;;14.75;61.46;100719.22;5020797;28;20443;-75
2022/06/22 02:44:45;;;;;;;2.80;1.70;;;14.70;1.00;;;14.59;61.97;100728.88;5008321;28;20434;-75
2022/06/22 02:47:29;;;;;;;4.03;2.60;;;14.70;1.00;;;14.58;62.44;100729.94;5017108;28;20797;-74
2022/06/22 02:50:05;;;;;;;3.20;2.00;;;14.70;1.00;;;14.52;62.87;100732.78;5009791;28;20453;-75
2022/06/22 02:52:44;;;;;;;4.90;2.43;;;14.60;1.00;;;14.58;63.49;100729.09;5015146;28;20478;-74
2022/06/22 02:55:16;;;;;;;8.53;2.37;;;14.60;1.00;;;14.59;64.00;100733.50;5017327;28;20791;-75
2022/06/22 02:57:49;;;;;;;3.90;2.30;;;14.60;1.00;;;14.50;63.86;100715.84;5017339;28;20437;-75
2022/06/22 03:00:24;;;;;;;3.47;2.00;;;14.60;1.00;;;14.49;64.34;100719.59;5018359;28;20527;-77
2022/06/22 03:03:01;;;;;;;5.13;2.50;;;14.50;1.00;;;14.63;64.32;100718.34;5003601;28;20472;-74
2022/06/22 03:05:30;;;;;;;2.63;2.27;;;14.60;1.00;;;14.61;64.20;100720.50;5011219;28;20428;-75
2022/06/22 03:08:02;;;;;;;2.57;2.10;;;14.60;1.00;;;14.66;65.00;100717.91;5011426;28;20495;-74
2022/06/22 03:10:38;;;;;;;4.60;2.53;;;14.60;1.00;;;14.69;64.40;100711.97;5010322;28;20415;-74
2022/06/22 03:13:09;;;;;;;4.10;2.20;;;14.60;1.00;;;14.67;64.33;100703.19;4995614;28;20447;-74
2022/06/22 03:15:39;;;;;;;3.77;2.40;;;14.60;1.00;;;14.79;64.40;100707.63;5018522;28;20463;-75
2022/06/22 03:18:17;;;;;;;4.37;2.83;;;14.70;1.00;;;14.76;64.61;100718.97;5009488;28;20867;-73
2022/06/22 03:20:53;;;;;;;3.07;2.30;;;14.70;1.00;;;14.95;64.93;100710.72;5015451;28;20474;-74
2022/06/22 03:23:37;;;;;;;4.20;3.17;;;14.70;1.00;;;15.01;64.95;100716.03;5017455;28;20814;-75
2022/06/22 03:26:14;;;;;;;3.73;3.10;;;14.80;1.00;;;15.05;64.69;100706.34;5008773;28;20739;-75
2022/06/22 03:28:51;;;;;;;5.10;3.37;;;14.80;1.00;;;15.10;64.56;100709.19;5015990;28;20503;-74
2022/06/22 03:31:28;;;;;;;4.40;2.77;;;14.90;1.00;;;15.19;63.58;100701.50;5020024;28;20463;-74
2022/06/22 03:34:08;;;;;;;4.20;2.63;;;14.90;1.00;;;15.36;63.51;100696.16;5015430;28;20450;-75
2022/06/22 03:36:44;;;;;;;4.77;3.80;;;15.00;1.00;;;15.55;62.59;100694.97;5015287;28;20439;-75
2022/06/22 03:39:17;;;;;;;3.60;3.00;;;15.10;1.00;;;16.20;61.11;100684.59;5012314;28;20472;-74
2022/06/22 03:41:53;;;;;;;3.70;3.03;;;15.50;1.00;;;17.69;57.02;100679.38;5011751;28;20481;-74
2022/06/22 03:44:30;;;;;;;3.40;3.10;;;16.20;1.00;;;19.29;53.07;100683.97;4993774;28;20457;-77
2022/06/22 03:47:07;;;;;;;2.87;2.50;;;16.90;1.00;;;20.79;49.31;100676.56;5012811;28;20623;-75
2022/06/22 03:49:44;;;;;;;6.83;2.70;;;17.60;1.00;;;22.04;46.32;100673.81;5022746;28;20439;-74
2022/06/22 03:52:26;;;;;;;7.73;4.30;;;18.70;1.00;;;22.34;45.56;100674.75;5011284;28;20530;-74
2022/06/22 03:55:03;;;;;;;4.47;3.17;;;19.20;1.00;;;22.85;44.29;100669.75;5010390;28;20554;-75
2022/06/22 03:57:37;;;;;;;6.50;3.87;;;19.50;1.00;;;23.24;43.43;100672.38;5014069;28;20445;-76
2022/06/22 04:00:10;;;;;;;4.13;2.30;;;19.70;1.00;;;23.55;42.65;100670.16;5014811;28;20427;-74
2022/06/22 04:02:41;;;;;;;5.27;3.27;;;19.90;1.00;;;23.89;41.99;100670.84;5011387;28;20495;-74
2022/06/22 04:05:19;;;;;;;4.77;3.37;;;20.10;1.00;;;24.02;42.02;100677.59;5012035;28;20458;-75
2022/06/22 04:07:48;;;;;;;5.63;3.10;;;20.20;1.00;;;24.44;41.01;100674.81;5006979;28;20425;-73
2022/06/22 04:10:43;;;;;;;5.73;3.40;;;20.60;1.00;;;24.99;40.00;100669.50;5011026;28;20439;-74
2022/06/22 04:13:21;;;;;;;8.47;5.03;;;20.90;1.00;;;24.91;40.27;100673.81;5010781;28;20530;-74
2022/06/22 04:16:00;;;;;;;5.97;3.27;;;21.10;1.00;;;25.29;39.32;100671.75;5012024;28;20776;-74
2022/06/22 04:18:39;;;;;;;4.90;3.63;;;21.40;1.00;;;25.80;38.48;100674.34;5010851;28;20410;-75
2022/06/22 04:21:14;;;;;;;4.13;3.00;;;21.60;1.00;;;25.75;39.13;100677.25;5009756;28;20494;-74
2022/06/22 04:23:49;;;;;;;5.53;3.50;;;21.70;1.00;;;25.95;38.05;100670.44;5010098;28;20820;-73
2022/06/22 04:26:25;;;;;;;3.90;3.27;;;21.90;1.00;;;26.48;36.63;100680.97;5012053;28;20440;-73
2022/06/22 04:29:01;;;;;;;5.80;2.53;;;22.10;1.00;;;26.34;36.91;100681.78;5011085;28;20424;-74
2022/06/22 04:31:37;;;;;;;4.17;2.90;;;22.10;1.00;;;26.51;36.91;100683.09;5012712;28;20481;-74
2022/06/22 04:34:11;;;;;;;5.87;3.80;;;22.30;1.00;;;26.38;36.84;100685.59;5012754;28;20539;-75
2022/06/22 04:36:48;;;;;;;4.00;2.73;;;22.50;1.00;;;26.20;36.90;100686.53;5011690;28;20411;-74
2022/06/22 04:39:25;;;;;;;5.67;3.80;;;22.80;1.00;;;26.51;36.93;100689.47;5016774;28;20450;-75
2022/06/22 04:41:55;;;;;;;4.43;3.57;;;22.90;1.00;;;26.96;35.74;100684.78;5000171;28;20480;-74
2022/06/22 04:44:29;;;;;;;6.77;4.50;;;23.20;1.00;;;27.22;35.73;100688.53;5016394;28;20958;-76
2022/06/22 04:47:11;;;;;;;5.97;4.60;;;22.80;1.00;;;26.65;36.50;100684.69;5009761;28;20411;-74
2022/06/22 04:49:50;;;;;;;5.10;4.40;;;22.60;1.00;;;26.90;36.62;100697.16;5012248;28;20801;-75
2022/06/22 04:52:25;;;;;;;6.00;4.13;;;22.50;1.00;;;27.07;36.19;100690.88;5005373;28;20480;-75
2022/06/22 04:55:00;;;;;;;3.50;3.20;;;22.40;1.00;;;26.69;36.15;100695.97;5011060;28;20448;-74
2022/06/22 04:57:34;;;;;;;4.60;3.30;;;22.70;1.00;;;26.68;36.06;100694.31;5009621;28;20422;-74
2022/06/22 05:00:13;;;;;;;3.30;3.00;;;22.60;1.00;;;27.24;35.30;100697.38;5008302;28;20444;-74
2022/06/22 05:02:46;;;;;;;3.63;2.70;;;22.90;1.00;;;27.70;34.85;100700.88;5008466;28;20477;-74
2022/06/22 05:05:24;;;;;;;4.07;2.77;;;23.00;1.00;;;27.67;34.85;100699.59;5000377;28;20420;-73
2022/06/22 05:08:02;;;;;;;5.43;3.60;;;23.30;1.00;;;27.58;34.84;100698.72;5000520;28;20931;-74
2022/06/22 05:10:43;;;;;;;7.20;3.47;;;23.50;1.00;;;28.38;34.36;100697.50;5006339;28;20826;-73
2022/06/22 05:13:21;;;;;;;4.50;2.97;;;23.70;1.00;;;29.03;33.20;100697.34;5000198;28;20459;-75
2022/06/22 05:15:55;;;;;;;4.33;3.30;;;24.10;1.00;;;29.62;32.26;100703.94;5006794;28;20555;-76
2022/06/22 05:18:29;;;;;;;3.73;2.90;;;24.20;1.00;;;29.47;32.03;100712.84;5004299;28;20548;-74
2022/06/22 05:21:09;;;;;;;5.80;3.13;;;24.60;1.00;;;29.15;32.90;100710.59;5004774;28;20511;-74
2022/06/22 05:23:44;;;;;;;3.40;3.10;;;24.80;1.00;;;29.22;32.52;100705.34;4996327;28;20472;-74
2022/06/22 05:26:18;;;;;;;4.93;3.00;;;25.70;1.00;;;29.10;32.47;100705.19;5013208;28;20867;-74
2022/06/22 05:28:57;;;;;;;4.67;3.20;;;26.00;1.00;;;29.71;31.71;100718.66;5005542;28;20433;-73
2022/06/22 05:31:32;;;;;;;3.33;3.03;;;26.00;1.00;;;30.22;30.63;100716.75;5008460;28;20452;-76
2022/06/22 05:34:08;;;;;;;4.50;2.90;;;26.30;1.00;;;30.53;30.46;100717.25;5005982;28;20445;-75
2022/06/22 05:36:45;;;;;;;6.67;3.50;;;26.10;1.00;;;30.86;29.66;100722.88;5010161;28;20475;-74
2022/06/22 05:39:16;;;;;;;4.33;3.80;;;25.90;1.00;;;28.74;33.23;100723.09;5009883;28;20445;-74
2022/06/22 05:41:48;;;;;;;3.53;3.20;;;26.10;1.00;;;25.64;38.53;100734.00;5010446;28;20469;-75
2022/06/22 05:44:22;;;;;;;4.80;3.40;;;25.10;1.00;;;24.05;41.21;100733.13;5018721;28;20548;-75
2022/06/22 05:46:54;;;;;;;8.60;3.50;;;24.10;1.00;;;22.96;43.42;100731.97;5016345;28;20796;-73
2022/06/22 05:49:31;;;;;;;7.10;3.60;;;23.20;1.00;;;22.38;44.20;100730.97;5008466;28;20442;-75
2022/06/22 05:52:08;;;;;;;5.70;3.60;;;22.60;1.00;;;22.01;46.14;100732.25;5016787;28;20513;-74
2022/06/22 05:54:45;;;;;;;8.07;3.70;;;22.00;1.00;;;21.89;46.14;100734.47;5023887;28;21015;-75
2022/06/22 05:57:24;;;;;;;10.03;3.70;;;21.70;1.00;;;21.87;46.52;100736.69;5006526;28;20491;-75
2022/06/22 06:00:01;;;;;;;3.80;3.13;;;21.60;1.00;;;21.95;46.07;100733.38;5015642;28;20440;-75
2022/06/22 06:02:48;;;;;;;4.50;3.50;;;21.60;1.00;;;21.81;45.50;100748.81;5011116;28;20447;-74
2022/06/22 06:05:27;;;;;;;6.47;4.40;;;21.60;1.00;;;21.91;46.12;100748.78;5007835;28;20531;-74
2022/06/22 06:08:02;;;;;;;4.77;4.17;;;21.60;1.00;;;21.98;45.95;100743.00;5014728;28;20410;-75
2022/06/22 06:10:37;;;;;;;3.90;2.90;;;21.60;1.00;;;21.94;44.77;100742.75;5013864;28;20533;-73
2022/06/22 06:13:21;;;;;;;9.73;3.47;;;21.60;1.00;;;22.04;45.62;100748.22;5013547;28;20463;-73
2022/06/22 06:15:55;;;;;;;4.33;2.83;;;21.60;1.00;;;22.20;45.89;100753.66;5019601;28;20945;-74
2022/06/22 06:18:35;;;;;;;5.57;3.43;;;21.70;1.00;;;22.37;45.43;100760.47;5007525;28;20449;-75
2022/06/22 06:21:08;;;;;;;9.33;4.33;;;21.90;1.00;;;22.49;45.39;100757.38;5020981;28;20461;-76
2022/06/22 06:23:41;;;;;;;5.33;4.13;;;22.10;1.00;;;22.46;45.00;100757.97;5011603;28;20476;-75
2022/06/22 06:29:18;;;;;;;5.27;3.37;;;22.20;1.00;;;22.42;44.12;100757.69;5015279;28;20440;-75
2022/06/22 06:32:05;;;;;;;4.40;3.37;;;22.20;1.00;;;22.51;43.39;100755.19;5015452;28;20503;-75
2022/06/22 06:34:43;;;;;;;6.73;4.23;;;22.20;1.00;;;22.71;44.25;100746.78;5019288;28;20437;-76
2022/06/22 06:37:21;;;;;;;4.77;3.73;;;22.20;1.00;;;22.89;43.37;100748.88;5016194;28;20506;-76
2022/06/22 06:39:55;;;;;;;4.27;2.90;;;22.40;1.00;;;22.94;41.85;100734.22;5016358;28;20415;-73
2022/06/22 06:42:38;;;;;;;5.23;2.97;;;22.40;1.00;;;23.01;40.96;100731.13;5014475;28;20514;-75
2022/06/22 06:45:16;;;;;;;3.73;2.33;;;22.50;1.00;;;23.00;40.62;100730.28;5015601;28;20781;-75
2022/06/22 06:47:52;;;;;;;5.03;2.90;;;22.50;1.00;;;23.09;40.44;100730.53;4997639;28;20438;-75
2022/06/22 06:50:30;;;;;;;5.80;2.70;;;22.80;1.00;;;23.20;41.47;100721.00;5016603;28;20440;-74
2022/06/22 06:53:13;;;;;;;5.20;2.90;;;22.90;1.00;;;23.43;41.13;100714.72;5015862;28;21021;-75
2022/06/22 06:55:50;;;;;;;4.23;2.33;;;23.00;1.00;;;23.56;39.19;100719.59;5015200;28;20403;-75
2022/06/22 06:58:41;;;;;;;2.07;1.70;;;23.30;1.00;;;23.45;36.25;100718.03;5018635;28;20410;-74
2022/06/22 07:01:19;;;;;;;2.80;1.93;;;23.20;1.00;;;23.36;37.47;100711.47;5014974;28;20433;-75
2022/06/22 07:03:57;;;;;;;3.07;2.70;;;23.20;1.00;;;23.62;37.07;100723.13;5015378;28;20487;-74
2022/06/22 07:06:27;;;;;;;5.60;1.73;;;23.30;1.00;;;23.48;37.38;100728.50;5012013;28;20446;-74
2022/06/22 07:09:07;;;;;;;2.77;2.37;;;23.30;1.00;;;23.43;36.01;100736.81;5012112;28;20440;-75
2022/06/22 07:11:45;;;;;;;3.40;1.53;;;23.30;1.00;;;23.52;37.15;100740.63;5001305;28;20838;-75
2022/06/22 07:14:25;;;;;;;4.17;2.37;;;23.30;1.00;;;23.41;37.08;100739.03;5017989;28;21076;-75
2022/06/22 07:17:00;;;;;;;3.67;1.70;;;23.20;1.00;;;23.62;36.55;100740.53;5021675;28;20399;-74
2022/06/22 07:19:38;;;;;;;2.50;1.73;;;23.30;1.00;;;23.49;36.66;100732.91;5016298;28;20413;-74
2022/06/22 07:22:21;;;;;;;4.57;1.80;;;23.30;1.00;;;23.66;36.68;100725.00;5019210;28;20436;-73
2022/06/22 07:25:00;;;;;;;3.57;2.20;;;23.40;1.00;;;23.66;36.54;100733.31;5012046;28;20443;-74
2022/06/22 07:27:38;;;;;;;4.37;1.90;;;23.40;1.00;;;23.80;36.66;100730.66;5018137;28;20439;-75
2022/06/22 07:30:19;;;;;;;2.40;1.70;;;23.50;1.00;;;23.98;36.33;100734.56;5008097;28;20457;-74
2022/06/22 07:32:56;;;;;;;2.63;1.70;;;23.60;1.00;;;24.04;36.24;100733.41;5013342;28;20427;-74
2022/06/22 07:35:35;;;;;;;4.03;2.53;;;23.70;1.00;;;24.33;36.93;100739.69;5014654;28;20442;-74
2022/06/22 07:38:16;;;;;;;2.57;1.80;;;23.90;1.00;;;24.46;36.06;100738.94;5014066;28;20491;-73
2022/06/22 07:43:32;;;;;;;7.87;2.17;;;24.20;1.00;;;24.81;35.92;100739.53;5012322;28;20473;-75
2022/06/22 07:46:04;;;;;;;2.93;1.70;;;24.40;1.00;;;24.77;35.23;100736.56;5016105;28;20441;-75
2022/06/22 07:48:43;;;;;;;2.43;1.80;;;24.50;1.00;;;24.94;35.95;100736.03;5003614;28;20789;-74
2022/06/22 07:51:23;;;;;;;4.47;2.60;;;24.70;1.00;;;24.94;35.81;100738.81;5009960;28;20965;-75
2022/06/22 07:54:02;;;;;;;2.00;1.70;;;24.70;1.00;;;24.78;35.51;100745.69;5005949;28;20951;-75
2022/06/22 07:56:47;;;;;;;2.33;1.67;;;24.60;1.00;;;24.49;35.98;100743.91;5022259;28;20977;-75
2022/06/22 07:59:21;;;;;;;4.37;2.00;;;24.40;1.00;;;24.48;35.62;100735.88;5017248;28;20437;-75
2022/06/22 08:01:59;;;;;;;4.80;2.37;;;24.30;1.00;;;24.29;35.36;100735.88;5012221;28;20787;-74
2022/06/22 08:04:35;;;;;;;2.40;1.80;;;24.20;1.00;;;24.44;35.88;100741.22;4998065;28;20472;-73
2022/06/22 08:07:11;;;;;;;2.80;2.03;;;24.20;1.00;;;24.83;35.50;100723.47;5010378;28;20919;-75
2022/06/22 08:09:48;;;;;;;4.70;2.00;;;24.50;1.00;;;25.22;35.33;100723.94;5011413;28;20403;-75
2022/06/22 08:12:25;;;;;;;2.33;2.13;;;24.80;1.00;;;25.18;34.28;100717.34;5017425;28;20491;-74
2022/06/22 08:14:57;;;;;;;3.80;2.23;;;24.80;1.00;;;25.28;34.03;100719.94;5010599;28;20433;-75
2022/06/22 08:17:43;;;;;;;4.57;1.93;;;24.90;1.00;;;25.03;34.36;100720.38;5018897;28;20441;-74
2022/06/22 08:20:20;;;;;;;4.37;1.70;;;24.90;1.00;;;24.88;33.80;100713.19;4984986;28;20423;-75
2022/06/22 08:22:51;;;;;;;2.90;2.00;;;24.80;1.00;;;24.69;34.69;100721.44;5011977;28;20860;-75
2022/06/22 08:25:44;;;;;;;5.67;2.13;;;24.70;1.00;;;24.93;34.85;100713.06;5015965;28;20424;-74
2022/06/22 08:28:16;;;;;;;3.33;2.17;;;24.60;1.00;;;25.32;34.11;100712.66;5013427;28;20492;-73
2022/06/22 08:30:46;;;;;;;5.30;2.70;;;24.90;1.00;;;25.41;34.69;100708.09;5024157;28;20441;-74
2022/06/22 08:33:23;;;;;;;3.97;2.50;;;25.00;1.00;;;25.47;34.04;100709.63;5012416;28;20454;-75
2022/06/22 08:35:59;;;;;;;1.90;1.60;;;25.00;1.00;;;25.59;33.58;100711.94;5017081;28;20551;-73
2022/06/22 08:38:37;;;;;;;2.80;2.00;;;25.20;1.00;;;25.62;33.55;100704.94;5019933;28;20501;-75
2022/06/22 08:41:28;;;;;;;2.70;2.10;;;25.30;1.00;;;25.05;33.91;100713.44;5012368;28;20436;-76
2022/06/22 08:44:10;;;;;;;6.43;2.50;;;25.00;1.00;;;25.18;34.06;100714.59;5008775;28;20452;-74
2022/06/22 08:47:34;;;;;;;1.70;1.60;;;25.00;1.00;;;25.19;33.23;100698.78;5008448;28;20444;-75
2022/06/22 08:50:42;;;;;;;4.20;3.03;;;25.10;1.00;;;25.10;33.66;100698.69;4982338;28;20520;-75
2022/06/22 08:53:34;;;;;;;5.67;2.50;;;25.00;1.00;;;24.89;33.93;100692.66;5009691;28;21281;-74
2022/06/22 08:56:25;;;;;;;5.63;2.70;;;24.80;1.00;;;24.71;33.57;100692.66;5017729;28;20483;-75
2022/06/22 08:59:56;;;;;;;3.93;1.53;;;24.60;1.00;;;24.59;33.74;100699.47;5022345;28;20428;-76
2022/06/22 09:03:27;;;;;;;2.30;1.67;;;24.40;1.00;;;24.98;33.75;100690.03;5001603;28;20449;-77
2022/06/22 09:06:43;;;;;;;2.83;1.53;;;24.70;1.00;;;25.12;33.05;100690.91;5013920;28;20955;-75
2022/06/22 09:09:50;;;;;;;2.70;2.07;;;24.80;1.00;;;25.01;33.92;100689.44;4992929;28;20478;-76
2022/06/22 09:12:39;;;;;;;5.17;1.60;;;24.90;1.00;;;25.09;33.46;100688.72;5014620;28;20550;-76
2022/06/22 09:15:44;;;;;;;2.53;2.23;;;24.90;1.00;;;25.05;32.94;100684.91;5014962;28;20432;-76
2022/06/22 09:18:47;;;;;;;4.33;2.17;;;24.90;1.00;;;25.08;33.56;100689.84;5022486;28;20950;-75
2022/06/22 09:21:37;;;;;;;4.07;1.80;;;24.90;1.00;;;25.34;33.73;100685.50;4992145;28;20424;-75
2022/06/22 09:24:20;;;;;;;4.07;2.33;;;25.00;1.00;;;25.44;33.59;100688.06;5013390;28;20486;-76
2022/06/22 09:27:10;;;;;;;2.70;1.70;;;25.10;1.00;;;25.79;32.66;100696.84;5003810;28;20429;-76
2022/06/22 09:30:07;;;;;;;2.60;1.93;;;25.40;1.00;;;25.77;32.53;100702.69;5009476;28;20458;-75
2022/06/22 09:33:24;;;;;;;4.13;1.87;;;25.40;1.00;;;25.69;32.36;100689.56;5021341;28;21309;-76
2022/06/22 09:36:45;;;;;;;3.30;1.80;;;25.40;1.00;;;25.71;32.93;100692.84;5008656;28;20514;-75
2022/06/22 09:39:54;;;;;;;2.73;1.80;;;25.40;1.00;;;26.14;31.87;100692.53;4977954;28;20539;-76
2022/06/22 09:43:13;;;;;;;2.13;1.60;;;25.70;1.00;;;26.11;32.20;100702.25;4969491;28;20452;-75
2022/06/22 09:46:00;;;;;;;2.30;1.80;;;25.80;1.00;;;26.16;32.32;100693.84;5006780;28;20845;-76
2022/06/22 09:49:24;;;;;;;2.30;1.63;;;25.80;1.00;;;25.66;32.44;100703.22;5010060;28;20632;-76
2022/06/22 09:52:30;;;;;;;2.07;1.70;;;25.60;1.00;;;25.77;32.24;100697.16;4998569;28;20498;-76
2022/06/22 09:59:23;;;;;;;2.33;1.67;;;25.70;1.00;;;25.83;32.02;100695.09;4983907;28;20444;-74
2022/06/22 10:02:13;;;;;;;3.53;1.90;;;25.70;1.00;;;25.83;31.98;100701.47;5017502;28;20483;-76
2022/06/22 10:05:40;;;;;;;2.40;1.60;;;25.70;1.00;;;25.88;31.78;100700.53;5020445;28;21058;-75
2022/06/22 10:08:34;;;;;;;2.23;2.03;;;25.70;1.00;;;25.83;31.45;100700.66;5015265;28;20968;-76
2022/06/22 10:11:21;;;;;;;3.13;1.77;;;25.70;1.00;;;26.05;30.34;100692.41;5016794;28;20994;-74
2022/06/22 10:14:24;;;;;;;2.63;1.87;;;25.80;1.00;;;25.93;31.27;100706.81;5008318;28;20418;-74
2022/06/22 10:17:25;;;;;;;1.83;1.20;;;25.70;1.00;;;25.60;29.90;100707.22;5018178;28;20443;-75
2022/06/22 10:20:40;;;;;;;1.93;1.53;;;25.70;1.00;;;25.73;30.40;100707.22;5014190;28;20484;-75
2022/06/22 10:23:46;;;;;;;2.40;1.77;;;25.40;1.00;;;25.92;29.86;100693.25;5013386;28;20432;-76
2022/06/22 10:26:34;;;;;;;2.57;1.50;;;25.70;1.00;;;26.13;29.79;100704.75;4989294;28;20849;-77
2022/06/22 10:29:49;;;;;;;3.13;1.30;;;25.80;1.00;;;25.91;29.25;100699.91;5016706;28;20528;-76
2022/06/22 10:33:09;;;;;;;2.73;1.70;;;25.70;1.00;;;26.10;30.22;100681.19;5024133;28;20587;-76
2022/06/22 10:36:06;;;;;;;4.53;2.53;;;25.80;1.00;;;26.53;30.06;100694.72;5008165;28;20443;-77
2022/06/22 10:39:11;;;;;;;2.10;1.90;;;26.20;1.00;;;26.28;30.01;100696.13;5010643;28;20487;-75
2022/06/22 10:45:24;;;;;;;4.00;2.10;;;26.10;1.00;;;26.93;30.37;100695.69;5011792;28;20464;-76
2022/06/22 10:49:04;;;;;;;4.53;2.00;;;26.50;1.00;;;27.40;29.52;100686.66;5011797;28;20533;-74
2022/06/22 10:52:23;;;;;;;3.60;1.60;;;27.00;1.00;;;27.49;29.04;100689.53;5009004;28;20496;-77
2022/06/22 10:55:33;;;;;;;4.90;2.03;;;27.10;1.00;;;26.99;29.08;100692.47;5010483;28;20997;-77
2022/06/22 10:58:58;;;;;;;2.47;1.97;;;26.90;1.00;;;27.00;28.84;100699.69;5010191;28;20415;-76
2022/06/22 11:02:01;;;;;;;3.07;1.63;;;26.90;1.00;;;27.05;29.71;100699.56;4958022;28;20491;-76
2022/06/22 11:05:13;;;;;;;2.73;1.80;;;26.70;1.00;;;27.07;29.29;100697.25;5010376;28;20454;-77
2022/06/22 11:08:26;;;;;;;4.57;2.30;;;26.90;1.00;;;26.98;29.05;100698.34;4999297;28;20460;-76
2022/06/22 11:11:30;;;;;;;3.33;1.60;;;26.80;1.00;;;27.05;28.26;100705.13;5017249;28;20514;-75
2022/06/22 11:14:35;;;;;;;2.60;2.10;;;26.90;1.00;;;26.93;28.99;100690.97;4993571;28;20468;-77
2022/06/22 11:17:28;;;;;;;2.80;2.07;;;26.90;1.00;;;26.66;29.46;100691.06;5007560;28;20407;-75
2022/06/22 11:20:29;;;;;;;1.70;1.30;;;26.60;1.00;;;26.44;29.61;100702.13;5013433;28;20432;-76
2022/06/22 11:23:05;;;;;;;2.17;1.40;;;26.40;1.00;;;26.56;29.30;100702.41;5007148;28;20551;-74
2022/06/22 11:32:39;;;;;;;2.40;1.37;;;27.00;1.00;;;27.80;28.75;100698.63;5007183;28;20519;-72
2022/06/22 11:36:03;;;;;;;7.43;3.63;;;27.30;1.00;;;28.06;27.55;100713.47;5004469;28;20619;-74
2022/06/22 11:39:17;;;;;;;2.37;1.83;;;27.70;1.00;;;27.70;27.85;100698.94;5011219;28;20458;-73
2022/06/22 11:42:17;;;;;;;2.93;2.00;;;27.40;1.00;;;27.37;28.18;100694.81;5009559;28;20472;-74
2022/06/22 11:48:54;;;;;;;2.70;2.20;;;27.10;1.00;;;27.23;28.25;100690.19;5010195;28;20514;-74
2022/06/22 11:52:19;;;;;;;3.53;3.23;;;27.00;1.00;;;27.00;28.84;100685.78;5002497;28;20470;-73
2022/06/22 11:55:00;;;;;;;1.93;1.50;;;26.90;1.00;;;26.76;28.77;100679.72;5006848;28;20971;-75
2022/06/22 11:57:54;;;;;;;1.87;1.57;;;26.70;1.00;;;26.60;29.07;100676.47;5014912;28;20913;-74
2022/06/22 12:00:38;;;;;;;1.60;1.47;;;26.50;1.00;;;26.97;29.22;100668.94;5014966;28;20467;-74